createdAt,value
2023-01-18T00:01:36.072Z,-16.48
2023-01-18T00:04:05.080Z,-16.35
2023-01-18T00:06:34.179Z,-16.55
2023-01-18T00:09:02.857Z,-16.73
2023-01-18T00:11:31.850Z,-17.09
2023-01-18T00:14:03.616Z,-16.67
2023-01-18T00:16:32.540Z,-16.60
2023-01-18T00:19:03.642Z,-16.50
2023-01-18T00:21:32.329Z,-16.64
2023-01-18T00:24:01.211Z,-16.68
2023-01-18T00:26:29.931Z,-16.98
2023-01-18T00:29:01.517Z,-16.87
2023-01-18T00:31:30.305Z,-16.89
2023-01-18T00:33:59.132Z,-17.02
2023-01-18T00:36:27.989Z,-16.88
2023-01-18T00:38:56.720Z,-17.12
2023-01-18T00:41:26.449Z,-17.40
2023-01-18T00:43:55.574Z,-17.74
2023-01-18T00:46:28.147Z,-17.02
2023-01-18T00:48:59.649Z,-16.97
2023-01-18T00:51:28.562Z,-17.15
2023-01-18T00:53:57.416Z,-17.60
2023-01-18T00:56:26.258Z,-17.19
2023-01-18T00:58:54.998Z,-17.08
2023-01-18T01:01:25.044Z,-17.02
2023-01-18T01:04:12.097Z,-17.09
2023-01-18T01:06:47.420Z,-17.23
2023-01-18T01:09:25.934Z,-17.17
2023-01-18T01:12:13.239Z,-17.38
2023-01-18T01:15:05.034Z,-17.44
2023-01-18T01:17:55.110Z,-17.89
2023-01-18T01:20:44.259Z,-17.42
2023-01-18T01:23:36.346Z,-17.32
2023-01-18T01:26:07.131Z,-17.60
2023-01-18T01:28:44.935Z,-17.48
2023-01-18T01:31:15.678Z,-17.43
2023-01-18T01:33:45.760Z,-17.46
2023-01-18T01:36:17.178Z,-17.73
2023-01-18T01:38:46.544Z,-17.55
2023-01-18T01:41:20.973Z,-17.78
2023-01-18T01:43:52.037Z,-17.73
2023-01-18T01:46:40.520Z,-17.68
2023-01-18T01:49:14.942Z,-17.50
2023-01-18T01:51:47.367Z,-17.76
2023-01-18T01:54:23.233Z,-17.66
2023-01-18T01:56:53.734Z,-18.32
2023-01-18T01:59:22.879Z,-19.04
2023-01-18T02:01:51.744Z,-17.91
2023-01-18T02:04:20.498Z,-17.90
2023-01-18T02:06:48.944Z,-18.31
2023-01-18T02:09:17.690Z,-17.85
2023-01-18T02:11:46.209Z,-17.91
2023-01-18T02:14:17.412Z,-17.89
2023-01-18T02:17:05.692Z,-17.93
2023-01-18T02:19:49.348Z,-17.94
2023-01-18T02:22:56.486Z,-18.57
2023-01-18T02:25:35.873Z,-18.00
2023-01-18T02:28:17.768Z,-18.01
2023-01-18T02:30:59.087Z,-18.08
2023-01-18T02:33:51.470Z,-18.42
2023-01-18T02:36:32.612Z,-18.22
2023-01-18T02:39:24.016Z,-18.13
2023-01-18T02:42:23.633Z,-18.34
2023-01-18T02:45:10.918Z,-18.40
2023-01-18T02:47:39.814Z,-18.26
2023-01-18T02:50:08.972Z,-18.67
2023-01-18T02:52:48.303Z,-18.15
2023-01-18T02:55:28.943Z,-18.15
2023-01-18T02:58:03.713Z,-18.24
2023-01-18T03:00:35.657Z,-18.35
2023-01-18T03:03:07.052Z,-18.52
2023-01-18T03:05:37.837Z,-18.87
2023-01-18T03:08:19.312Z,-18.62
2023-01-18T03:11:11.564Z,-18.48
2023-01-18T03:14:02.481Z,-18.26
2023-01-18T03:16:40.694Z,-18.93
2023-01-18T03:19:41.974Z,-18.37
2023-01-18T03:22:11.801Z,-18.47
2023-01-18T03:24:41.934Z,-18.31
2023-01-18T03:27:30.074Z,-18.40
2023-01-18T03:30:16.941Z,-18.42
2023-01-18T03:33:04.398Z,-18.39
2023-01-18T03:35:34.017Z,-18.76
2023-01-18T03:38:02.834Z,-18.65
2023-01-18T03:40:32.216Z,-18.38
2023-01-18T03:43:15.760Z,-18.56
2023-01-18T03:45:49.049Z,-19.23
2023-01-18T03:48:18.235Z,-19.01
2023-01-18T03:51:14.246Z,-18.53
2023-01-18T03:54:10.127Z,-18.59
2023-01-18T03:56:57.772Z,-18.46
2023-01-18T03:59:31.304Z,-18.48
2023-01-18T04:02:00.245Z,-18.16
2023-01-18T04:04:28.839Z,-18.39
2023-01-18T04:06:58.795Z,-18.31
2023-01-18T04:09:28.174Z,-18.12
2023-01-18T04:11:56.783Z,-18.14
2023-01-18T04:14:25.599Z,-18.30
2023-01-18T04:16:54.275Z,-18.03
2023-01-18T04:19:22.812Z,-18.20
2023-01-18T04:21:54.326Z,-18.12
2023-01-18T04:24:22.825Z,-17.95
2023-01-18T04:26:51.578Z,-18.02
2023-01-18T04:29:20.206Z,-17.94
2023-01-18T04:31:48.856Z,-17.91
2023-01-18T04:34:17.715Z,-17.69
2023-01-18T04:36:46.223Z,-18.01
2023-01-18T04:39:15.095Z,-17.94
2023-01-18T04:41:43.785Z,-17.52
2023-01-18T04:44:13.659Z,-17.54
2023-01-18T04:46:42.441Z,-17.44
2023-01-18T04:49:16.219Z,-18.00
2023-01-18T04:51:46.769Z,-17.52
2023-01-18T04:54:17.757Z,-17.50
2023-01-18T04:56:46.437Z,-17.55
2023-01-18T04:59:16.901Z,-17.22
2023-01-18T05:01:45.769Z,-18.08
2023-01-18T05:04:14.459Z,-17.42
2023-01-18T05:06:42.953Z,-17.18
2023-01-18T05:09:13.289Z,-17.17
2023-01-18T05:11:42.864Z,-17.23
2023-01-18T05:14:11.459Z,-16.93
2023-01-18T05:16:40.089Z,-17.02
2023-01-18T05:19:09.981Z,-16.89
2023-01-18T05:21:38.577Z,-17.04
2023-01-18T05:24:07.601Z,-16.61
2023-01-18T05:26:37.357Z,-16.87
2023-01-18T05:29:06.015Z,-16.57
2023-01-18T05:31:34.655Z,-16.56
2023-01-18T05:34:03.539Z,-16.35
2023-01-18T05:36:32.336Z,-16.51
2023-01-18T05:39:00.886Z,-16.41
2023-01-18T05:41:29.597Z,-16.31
2023-01-18T05:43:58.335Z,-16.31
2023-01-18T05:46:27.085Z,-16.03
2023-01-18T05:48:59.783Z,-16.89
2023-01-18T05:51:28.659Z,-16.08
2023-01-18T05:53:57.297Z,-15.89
2023-01-18T05:56:26.035Z,-15.83
2023-01-18T05:58:54.806Z,-15.96
2023-01-18T06:01:23.409Z,-15.77
2023-01-18T06:03:52.075Z,-15.75
2023-01-18T06:06:21.017Z,-15.87
2023-01-18T06:08:49.576Z,-15.53
2023-01-18T06:11:20.647Z,-15.44
2023-01-18T06:13:49.597Z,-15.32
2023-01-18T06:16:18.273Z,-15.43
2023-01-18T06:18:47.110Z,-15.25
2023-01-18T06:21:15.919Z,-16.05
2023-01-18T06:23:44.629Z,-15.36
2023-01-18T06:26:13.120Z,-15.35
2023-01-18T06:28:42.183Z,-15.15
2023-01-18T06:31:12.155Z,-14.97
2023-01-18T06:33:40.912Z,-15.02
2023-01-18T06:36:10.945Z,-14.98
2023-01-18T06:38:39.704Z,-14.79
2023-01-18T06:41:10.014Z,-14.87
2023-01-18T06:43:38.703Z,-14.54
2023-01-18T06:46:10.400Z,-14.51
2023-01-18T06:48:41.617Z,-14.20
2023-01-18T06:51:10.370Z,-14.76
2023-01-18T06:53:39.512Z,-13.99
2023-01-18T06:56:11.087Z,-14.01
2023-01-18T06:58:39.942Z,-13.97
2023-01-18T07:01:09.108Z,-13.89
2023-01-18T07:03:39.520Z,-13.92
2023-01-18T07:06:08.357Z,-13.75
2023-01-18T07:08:36.736Z,-13.86
2023-01-18T07:11:08.071Z,-13.64
2023-01-18T07:13:40.619Z,-14.37
2023-01-18T07:16:12.395Z,-13.59
2023-01-18T07:18:44.678Z,-13.30
2023-01-18T07:21:15.258Z,-13.32
2023-01-18T07:23:44.537Z,-13.48
2023-01-18T07:26:17.857Z,-13.20
2023-01-18T07:28:47.901Z,-13.41
2023-01-18T07:31:17.815Z,-13.27
2023-01-18T07:33:46.496Z,-14.04
2023-01-18T07:36:15.096Z,-13.75
2023-01-18T07:38:43.856Z,-13.12
2023-01-18T07:41:15.665Z,-12.85
2023-01-18T07:43:46.619Z,-12.99
2023-01-18T07:46:22.729Z,-12.86
2023-01-18T07:48:54.419Z,-13.07
2023-01-18T07:51:23.887Z,-12.72
2023-01-18T07:53:56.011Z,-12.87
2023-01-18T07:56:26.596Z,-12.69
2023-01-18T07:58:56.496Z,-12.82
2023-01-18T08:01:25.585Z,-12.98
2023-01-18T08:03:55.451Z,-13.01
2023-01-18T08:06:26.047Z,-13.04
2023-01-18T08:08:57.821Z,-13.06
2023-01-18T08:11:27.186Z,-12.71
2023-01-18T08:13:55.944Z,-12.78
2023-01-18T08:16:25.205Z,-12.85
2023-01-18T08:18:55.310Z,-12.73
2023-01-18T08:21:24.163Z,-12.69
2023-01-18T08:23:55.991Z,-12.72
2023-01-18T08:26:24.549Z,-12.63
2023-01-18T08:28:53.311Z,-12.93
2023-01-18T08:31:23.177Z,-12.86
2023-01-18T08:33:51.764Z,-12.79
2023-01-18T08:36:23.236Z,-12.62
2023-01-18T08:38:53.786Z,-12.60
2023-01-18T08:41:24.716Z,-12.76
2023-01-18T08:43:53.535Z,-12.64
2023-01-18T08:46:23.068Z,-13.20
2023-01-18T08:48:56.941Z,-12.91
2023-01-18T08:51:28.103Z,-12.94
2023-01-18T08:53:57.898Z,-12.85
2023-01-18T08:56:27.336Z,-13.16
2023-01-18T08:58:56.625Z,-13.22
2023-01-18T09:01:27.331Z,-13.27
2023-01-18T09:03:56.935Z,-13.50
2023-01-18T09:06:26.575Z,-13.52
2023-01-18T09:08:55.377Z,-13.46
2023-01-18T09:11:23.942Z,-13.56
2023-01-18T09:14:01.231Z,-13.44
2023-01-18T09:16:32.046Z,-13.48
2023-01-18T09:19:00.801Z,-13.67
2023-01-18T09:21:29.577Z,-13.71
2023-01-18T09:24:00.002Z,-13.59
2023-01-18T09:26:29.717Z,-14.16
2023-01-18T09:28:58.324Z,-13.67
2023-01-18T09:31:29.593Z,-13.50
2023-01-18T09:34:17.428Z,-13.72
2023-01-18T09:36:50.158Z,-13.86
2023-01-18T09:39:20.705Z,-13.71
2023-01-18T09:41:59.163Z,-13.80
2023-01-18T09:44:39.583Z,-13.63
2023-01-18T09:47:14.415Z,-13.68
2023-01-18T09:49:57.056Z,-13.71
2023-01-18T09:52:50.164Z,-13.67
2023-01-18T09:55:39.006Z,-14.03
2023-01-18T09:58:19.976Z,-13.72
2023-01-18T10:00:50.282Z,-13.94
2023-01-18T10:03:21.021Z,-14.04
2023-01-18T10:06:16.680Z,-13.98
2023-01-18T10:08:55.199Z,-14.02
2023-01-18T10:11:34.776Z,-13.89
2023-01-18T10:14:16.196Z,-14.21
2023-01-18T10:16:49.245Z,-14.66
2023-01-18T10:19:25.956Z,-14.23
2023-01-18T10:22:07.682Z,-14.09
2023-01-18T10:24:39.255Z,-14.15
2023-01-18T10:27:36.664Z,-14.36
2023-01-18T10:30:23.181Z,-14.43
2023-01-18T10:32:59.957Z,-14.68
2023-01-18T10:35:39.377Z,-14.69
2023-01-18T10:38:16.038Z,-14.79
2023-01-18T10:40:51.183Z,-14.53
2023-01-18T10:43:25.745Z,-14.79
2023-01-18T10:45:55.327Z,-14.77
2023-01-18T10:48:33.239Z,-14.70
2023-01-18T10:51:07.440Z,-15.34
2023-01-18T10:53:39.219Z,-15.50
2023-01-18T10:56:10.956Z,-14.85
2023-01-18T10:58:44.827Z,-14.87
2023-01-18T11:01:44.107Z,-15.14
2023-01-18T11:04:26.320Z,-15.19
2023-01-18T11:07:01.767Z,-15.20
2023-01-18T11:09:56.267Z,-15.32
2023-01-18T11:12:45.077Z,-15.20
2023-01-18T11:15:16.833Z,-15.25
2023-01-18T11:17:58.121Z,-15.50
2023-01-18T11:20:37.678Z,-15.59
2023-01-18T11:23:14.899Z,-15.37
2023-01-18T11:26:13.704Z,-15.42
2023-01-18T11:29:06.281Z,-15.43
2023-01-18T11:31:48.032Z,-15.71
2023-01-18T11:34:32.675Z,-15.69
2023-01-18T11:37:02.588Z,-15.91
2023-01-18T11:39:35.366Z,-15.64
2023-01-18T11:42:14.901Z,-15.69
2023-01-18T11:45:05.499Z,-16.24
2023-01-18T11:47:58.026Z,-16.05
2023-01-18T11:50:47.472Z,-15.91
2023-01-18T11:53:57.438Z,-15.91
2023-01-18T11:56:26.247Z,-15.98
2023-01-18T11:58:56.463Z,-16.14
2023-01-18T12:01:44.397Z,-16.00
2023-01-18T12:04:46.870Z,-16.03
2023-01-18T12:07:22.670Z,-16.42
2023-01-18T12:09:56.923Z,-16.39
2023-01-18T12:12:45.661Z,-16.12
2023-01-18T12:15:25.995Z,-16.37
2023-01-18T12:18:13.219Z,-16.84
2023-01-18T12:20:54.673Z,-16.53
2023-01-18T12:23:26.312Z,-16.30
2023-01-18T12:26:12.136Z,-16.38
2023-01-18T12:29:07.900Z,-16.33
2023-01-18T12:31:59.691Z,-16.34
2023-01-18T12:34:59.792Z,-16.38
2023-01-18T12:38:13.651Z,-16.39
2023-01-18T12:40:59.093Z,-16.66
2023-01-18T12:43:51.957Z,-16.48
2023-01-18T12:46:33.246Z,-16.51
2023-01-18T12:49:19.747Z,-17.54
2023-01-18T12:52:13.014Z,-16.62
2023-01-18T12:54:56.335Z,-16.92
2023-01-18T12:57:26.538Z,-16.99
2023-01-18T13:00:21.005Z,-16.60
2023-01-18T13:02:52.586Z,-16.66
2023-01-18T13:05:36.082Z,-16.88
2023-01-18T13:08:27.449Z,-16.76
2023-01-18T13:11:21.775Z,-16.95
2023-01-18T13:13:59.098Z,-17.01
2023-01-18T13:16:51.376Z,-17.32
2023-01-18T13:19:30.817Z,-17.13
2023-01-18T13:22:46.032Z,-17.00
2023-01-18T13:25:25.123Z,-17.03
2023-01-18T13:28:15.075Z,-17.03
2023-01-18T13:30:57.253Z,-17.20
2023-01-18T13:33:30.646Z,-17.23
2023-01-18T13:36:13.195Z,-17.07
2023-01-18T13:38:52.832Z,-18.59
2023-01-18T13:41:28.641Z,-17.35
2023-01-18T13:44:02.734Z,-17.09
2023-01-18T13:46:34.777Z,-17.13
2023-01-18T13:49:36.310Z,-17.18
2023-01-18T13:52:31.595Z,-17.20
2023-01-18T13:55:20.174Z,-17.40
2023-01-18T13:57:56.515Z,-17.78
2023-01-18T14:00:28.060Z,-17.33
2023-01-18T14:03:17.281Z,-17.31
2023-01-18T14:05:49.414Z,-17.64
2023-01-18T14:08:33.784Z,-17.56
2023-01-18T14:11:28.478Z,-17.48
2023-01-18T14:14:01.797Z,-17.37
2023-01-18T14:16:41.857Z,-17.57
2023-01-18T14:19:23.759Z,-17.33
2023-01-18T14:22:19.264Z,-17.59
2023-01-18T14:25:03.432Z,-17.18
2023-01-18T14:27:41.770Z,-17.79
2023-01-18T14:30:19.691Z,-17.11
2023-01-18T14:33:06.051Z,-17.26
2023-01-18T14:35:37.594Z,-17.30
2023-01-18T14:38:18.556Z,-17.13
2023-01-18T14:40:52.188Z,-17.19
2023-01-18T14:43:43.095Z,-17.08
2023-01-18T14:46:33.638Z,-16.81
2023-01-18T14:49:02.532Z,-16.88
2023-01-18T14:51:31.596Z,-17.36
2023-01-18T14:54:02.811Z,-16.69
2023-01-18T14:56:35.791Z,-16.65
2023-01-18T14:59:19.136Z,-18.25
2023-01-18T15:02:18.521Z,-16.59
2023-01-18T15:04:48.249Z,-16.67
2023-01-18T15:07:34.648Z,-16.68
2023-01-18T15:10:04.429Z,-16.84
2023-01-18T15:12:34.257Z,-16.91
2023-01-18T15:15:10.428Z,-16.81
2023-01-18T15:17:39.381Z,-16.84
2023-01-18T15:20:15.307Z,-17.11
2023-01-18T15:22:44.610Z,-17.58
2023-01-18T15:25:28.334Z,-16.92
2023-01-18T15:28:06.441Z,-16.88
2023-01-18T15:30:40.607Z,-17.19
2023-01-18T15:33:10.950Z,-17.29
2023-01-18T15:35:40.517Z,-17.13
2023-01-18T15:38:12.120Z,-17.25
2023-01-18T15:40:53.944Z,-16.98
2023-01-18T15:43:31.682Z,-16.77
2023-01-18T15:46:01.806Z,-16.93
2023-01-18T15:48:38.078Z,-16.86
2023-01-18T15:51:09.818Z,-16.85
2023-01-18T15:53:53.365Z,-17.21
2023-01-18T15:56:31.167Z,-16.45
2023-01-18T15:59:03.063Z,-16.89
2023-01-18T16:01:36.605Z,-16.60
2023-01-18T16:04:22.599Z,-16.42
2023-01-18T16:06:51.269Z,-16.58
2023-01-18T16:09:23.938Z,-16.97
2023-01-18T16:11:54.916Z,-17.06
2023-01-18T16:14:35.261Z,-16.60
2023-01-18T16:17:05.276Z,-16.44
2023-01-18T16:19:36.941Z,-16.47
2023-01-18T16:22:18.303Z,-16.53
2023-01-18T16:24:52.644Z,-17.07
2023-01-18T16:27:24.489Z,-16.43
2023-01-18T16:30:23.545Z,-16.53
2023-01-18T16:32:52.787Z,-16.66
2023-01-18T16:35:24.060Z,-16.37
2023-01-18T16:37:52.875Z,-16.53
2023-01-18T16:40:23.642Z,-16.75
2023-01-18T16:43:05.880Z,-17.33
2023-01-18T16:45:38.724Z,-17.07
2023-01-18T16:48:10.668Z,-16.37
2023-01-18T16:50:39.401Z,-16.93
2023-01-18T16:53:08.205Z,-16.31
2023-01-18T16:55:37.608Z,-16.30
2023-01-18T16:58:06.351Z,-16.75
2023-01-18T17:01:06.578Z,-16.30
2023-01-18T17:03:36.778Z,-16.47
2023-01-18T17:06:05.468Z,-16.53
2023-01-18T17:08:35.572Z,-16.35
2023-01-18T17:11:05.828Z,-16.42
2023-01-18T17:13:35.169Z,-16.73
2023-01-18T17:16:04.230Z,-16.16
2023-01-18T17:18:32.847Z,-16.31
2023-01-18T17:21:01.670Z,-16.11
2023-01-18T17:23:30.265Z,-16.05
2023-01-18T17:26:00.304Z,-15.99
2023-01-18T17:28:31.164Z,-16.16
2023-01-18T17:30:59.595Z,-16.66
2023-01-18T17:33:28.511Z,-15.92
2023-01-18T17:35:57.234Z,-15.68
2023-01-18T17:38:29.247Z,-15.64
2023-01-18T17:40:59.031Z,-15.78
2023-01-18T17:43:33.771Z,-15.69
2023-01-18T17:46:06.867Z,-16.59
2023-01-18T17:48:35.644Z,-15.93
2023-01-18T17:51:08.991Z,-15.55
2023-01-18T17:53:39.152Z,-16.00
2023-01-18T17:56:19.174Z,-15.58
2023-01-18T17:58:52.853Z,-15.74
2023-01-18T18:01:22.061Z,-15.46
2023-01-18T18:03:53.097Z,-15.78
2023-01-18T18:06:31.017Z,-15.56
2023-01-18T18:09:03.809Z,-16.20
2023-01-18T18:11:32.526Z,-15.45
2023-01-18T18:14:02.337Z,-15.90
2023-01-18T18:16:32.831Z,-15.73
2023-01-18T18:19:03.071Z,-15.11
2023-01-18T18:21:31.677Z,-14.89
2023-01-18T18:24:00.313Z,-14.85
2023-01-18T18:26:29.072Z,-14.65
2023-01-18T18:28:57.921Z,-14.65
2023-01-18T18:31:26.619Z,-14.70
2023-01-18T18:33:55.388Z,-14.63
2023-01-18T18:36:27.976Z,-14.52
2023-01-18T18:39:02.189Z,-14.99
2023-01-18T18:41:31.021Z,-14.49
2023-01-18T18:43:59.811Z,-14.62
2023-01-18T18:46:28.898Z,-14.33
2023-01-18T18:48:58.191Z,-14.83
2023-01-18T18:51:27.040Z,-14.35
2023-01-18T18:53:55.640Z,-14.53
2023-01-18T18:56:24.691Z,-14.15
2023-01-18T18:58:53.210Z,-14.40
2023-01-18T19:01:25.113Z,-14.25
2023-01-18T19:03:54.819Z,-13.98
2023-01-18T19:06:25.982Z,-13.85
2023-01-18T19:08:54.840Z,-13.72
2023-01-18T19:11:23.821Z,-13.63
2023-01-18T19:13:54.653Z,-13.85
2023-01-18T19:16:23.734Z,-13.68
2023-01-18T19:18:52.691Z,-13.38
2023-01-18T19:21:21.315Z,-13.64
2023-01-18T19:23:50.132Z,-13.38
2023-01-18T19:26:18.908Z,-13.28
2023-01-18T19:28:48.086Z,-13.48
2023-01-18T19:31:17.101Z,-13.37
2023-01-18T19:33:45.856Z,-13.04
2023-01-18T19:36:16.867Z,-13.04
2023-01-18T19:38:52.581Z,-12.99
2023-01-18T19:41:26.801Z,-13.40
2023-01-18T19:43:55.573Z,-12.89
2023-01-18T19:46:24.293Z,-12.64
2023-01-18T19:49:00.314Z,-12.68
2023-01-18T19:51:29.500Z,-12.71
2023-01-18T19:54:01.869Z,-12.48
2023-01-18T19:56:31.213Z,-12.47
2023-01-18T19:58:59.847Z,-12.52
2023-01-18T20:01:36.397Z,-12.59
2023-01-18T20:04:08.780Z,-12.51
2023-01-18T20:06:40.883Z,-12.65
2023-01-18T20:09:19.043Z,-12.63
2023-01-18T20:11:49.739Z,-12.64
2023-01-18T20:14:19.148Z,-12.82
2023-01-18T20:16:48.688Z,-12.85
2023-01-18T20:19:18.507Z,-12.85
2023-01-18T20:21:47.452Z,-12.89
2023-01-18T20:24:17.273Z,-12.90
2023-01-18T20:26:45.988Z,-13.36
2023-01-18T20:29:14.598Z,-12.73
2023-01-18T20:31:49.584Z,-12.84
2023-01-18T20:34:18.732Z,-12.81
2023-01-18T20:36:50.828Z,-13.01
2023-01-18T20:39:20.788Z,-13.03
2023-01-18T20:41:50.968Z,-12.98
2023-01-18T20:44:19.927Z,-12.89
2023-01-18T20:46:49.329Z,-13.20
2023-01-18T20:49:22.464Z,-13.12
2023-01-18T20:51:56.096Z,-13.42
2023-01-18T20:54:24.850Z,-12.88
2023-01-18T20:56:53.806Z,-12.98
2023-01-18T20:59:22.610Z,-13.08
2023-01-18T21:01:51.487Z,-13.27
2023-01-18T21:04:22.804Z,-13.10
2023-01-18T21:06:51.453Z,-13.02
2023-01-18T21:09:20.428Z,-13.08
2023-01-18T21:11:49.067Z,-13.23
2023-01-18T21:14:17.769Z,-13.27
2023-01-18T21:16:46.797Z,-13.18
2023-01-18T21:19:15.581Z,-13.61
2023-01-18T21:21:45.451Z,-13.12
2023-01-18T21:24:14.391Z,-13.37
2023-01-18T21:26:43.348Z,-13.20
2023-01-18T21:29:12.091Z,-13.33
2023-01-18T21:31:44.006Z,-13.24
2023-01-18T21:34:12.831Z,-13.11
2023-01-18T21:36:41.650Z,-13.54
2023-01-18T21:39:19.219Z,-13.13
2023-01-18T21:42:06.463Z,-13.32
2023-01-18T21:44:54.068Z,-13.31
2023-01-18T21:47:23.609Z,-13.43
2023-01-18T21:50:17.467Z,-13.35
2023-01-18T21:53:04.708Z,-13.56
2023-01-18T21:55:33.797Z,-13.23
2023-01-18T21:58:20.629Z,-13.40
2023-01-18T22:00:49.454Z,-13.13
2023-01-18T22:03:19.188Z,-13.18
2023-01-18T22:05:48.693Z,-13.50
2023-01-18T22:08:17.333Z,-13.40
2023-01-18T22:10:49.167Z,-13.38
2023-01-18T22:13:17.827Z,-13.65
2023-01-18T22:15:47.793Z,-13.38
2023-01-18T22:18:16.685Z,-13.50
2023-01-18T22:20:45.347Z,-13.48
2023-01-18T22:23:14.088Z,-13.43
2023-01-18T22:25:42.947Z,-13.95
2023-01-18T22:28:11.749Z,-13.45
2023-01-18T22:30:41.539Z,-13.44
2023-01-18T22:33:10.267Z,-13.33
2023-01-18T22:35:39.073Z,-13.40
2023-01-18T22:38:10.449Z,-13.33
2023-01-18T22:40:39.529Z,-13.40
2023-01-18T22:43:10.830Z,-13.34
2023-01-18T22:45:39.573Z,-13.50
2023-01-18T22:48:08.491Z,-13.36
2023-01-18T22:50:37.080Z,-13.86
2023-01-18T22:53:06.610Z,-13.47
2023-01-18T22:55:35.523Z,-13.86
2023-01-18T22:58:04.510Z,-13.48
2023-01-18T23:00:33.358Z,-13.56
2023-01-18T23:03:02.128Z,-13.39
2023-01-18T23:05:31.140Z,-13.98
2023-01-18T23:07:59.968Z,-13.40
2023-01-18T23:10:28.950Z,-13.59
2023-01-18T23:12:57.736Z,-13.39
2023-01-18T23:15:44.637Z,-13.54
2023-01-18T23:18:13.735Z,-13.72
2023-01-18T23:20:42.679Z,-13.70
2023-01-18T23:23:11.493Z,-13.69
2023-01-18T23:25:40.390Z,-13.61
2023-01-18T23:28:09.030Z,-13.62
2023-01-18T23:30:37.606Z,-13.76
2023-01-18T23:33:06.407Z,-13.84
2023-01-18T23:35:35.080Z,-14.01
2023-01-18T23:38:07.154Z,-13.88
2023-01-18T23:40:55.687Z,-14.14
2023-01-18T23:43:42.645Z,-14.24
2023-01-18T23:46:29.904Z,-14.07
2023-01-18T23:49:16.610Z,-14.18
2023-01-18T23:52:03.652Z,-14.07
2023-01-18T23:54:32.292Z,-14.24
2023-01-18T23:57:01.308Z,-14.06
2023-01-18T23:59:30.332Z,-14.30
